Atwood, IN

9:45 PM EDT on October 21, 2014 (GMT -0400)
Elkhart Municipal | Change Station
CLOSE
Current Station
Airport
Location: Elkhart,
Elevation: 778 ft
Nearby Weather Stations

Elev 778 ft 41.72 °N, 86.00 °W | Updated 55 minutes ago

Overcast
Overcast
46 °F
Feels Like 43 °F
N
7
Wind Variable Wind from North

Today
High -- | Low -- °F
--% Chance of Precip.
Yesterday
High -- | Low -- °F
Precip. -- in
8:02 AM 6:54 PM
Waning Crescent, 3% visible
Pressure 30.22 in
Visibility 10.0 miles
Clouds Overcast 3500 ft
Windchill 43 °F
Dew Point 36 °F
Humidity 66%
Rainfall 0.00 in
Snow Depth Not available.
UV 0 out of 12
Pollen 1.20 out of 12
Air Quality Not available.
Flu Activity Sporadic
METAR KEKM 220050Z 36006KT 10SM OVC035 08/02 A3022 RMK AO2 LAST

More Conditions Fewer Conditions

Pressure 30.22 in
Visibility 10.0 miles
Clouds Overcast 3500 ft
Windchill 43 °F
Dew Point 36 °F
Humidity 66%
Rainfall 0.00 in
Snow Depth Not available.
UV 0 out of 12
Pollen 1.20 out of 12
Air Quality Not available.
Flu Activity Sporadic
METAR KEKM 220050Z 36006KT 10SM OVC035 08/02 A3022 RMK AO2 LAST

More Conditions Fewer Conditions

10-Day Weather Forecast

Almanac

Astronomy

Oct. 21, 2014 Rise Set
Actual Time 8:02 AM EDT 6:54 PM EDT
Civil Twilight 7:34 AM EDT 7:22 PM EDT
Nautical Twilight 7:02 AM EDT 7:54 PM EDT
Astronomical Twilight 6:30 AM EDT 8:26 PM EDT
Moon 5:44 AM EDT (10/21) 5:48 PM EDT (10/21)
Length of Visible Light 11h 47m
Length of Day
10h 51m
Tomorrow will be 2m 35s shorter.
Waning Crescent, 3% of the Moon is Illuminated
Today
Waning Crescent
Oct 23
New
Oct 30
First Quarter
Nov 6
Full
Nov 14
Last Quarter

Community

WunderPhotos

Upload Photos

1,763,843 photos uploaded!

Nearby

Snow Depth

Station Depth Elevation
No new snow has been reported.

Earthquake Activity

City Distance Mag. Time & Date
No recent earthquake activity has been reported nearby.
Minimum magnitude displayed is 2.5.

Coastal Water Temperatures

Place Temperature
No Stations Reporting

Nearby Weather Stations